sensor_id;sensor_type;location;lat;lon;timestamp;pressure;altitude;pressure_sealevel;temperature;humidity
69245;BME280;56357;52.304;4.870;2023-03-16T00:00:39;101928.56;;;18.02;48.73
69245;BME280;56357;52.304;4.870;2023-03-16T00:03:07;101929.91;;;17.99;48.73
69245;BME280;56357;52.304;4.870;2023-03-16T00:05:33;101932.59;;;17.94;48.90
69245;BME280;56357;52.304;4.870;2023-03-16T00:08:00;101923.44;;;17.99;48.61
69245;BME280;56357;52.304;4.870;2023-03-16T00:10:27;101919.44;;;17.95;48.58
69245;BME280;56357;52.304;4.870;2023-03-16T00:12:54;101915.19;;;17.92;48.51
69245;BME280;56357;52.304;4.870;2023-03-16T00:15:21;101908.50;;;17.93;48.60
69245;BME280;56357;52.304;4.870;2023-03-16T00:17:47;101916.06;;;17.93;48.54
69245;BME280;56357;52.304;4.870;2023-03-16T00:20:15;101912.31;;;17.87;48.79
69245;BME280;56357;52.304;4.870;2023-03-16T00:22:43;101912.31;;;17.87;48.77
69245;BME280;56357;52.304;4.870;2023-03-16T00:25:11;101898.91;;;17.89;48.71
69245;BME280;56357;52.304;4.870;2023-03-16T00:27:39;101900.69;;;17.79;48.83
69245;BME280;56357;52.304;4.870;2023-03-16T00:30:06;101899.41;;;17.86;48.54
69245;BME280;56357;52.304;4.870;2023-03-16T00:32:35;101900.50;;;17.85;48.54
69245;BME280;56357;52.304;4.870;2023-03-16T00:35:04;101892.09;;;17.85;48.29
69245;BME280;56357;52.304;4.870;2023-03-16T00:37:31;101896.84;;;17.85;48.55
69245;BME280;56357;52.304;4.870;2023-03-16T00:39:57;101899.03;;;17.83;48.46
69245;BME280;56357;52.304;4.870;2023-03-16T00:42:26;101890.91;;;17.81;48.68
69245;BME280;56357;52.304;4.870;2023-03-16T00:44:54;101893.38;;;17.78;48.67
69245;BME280;56357;52.304;4.870;2023-03-16T00:47:32;101881.41;;;17.82;48.33
69245;BME280;56357;52.304;4.870;2023-03-16T00:50:00;101872.31;;;17.75;48.78
69245;BME280;56357;52.304;4.870;2023-03-16T00:52:28;101878.00;;;17.80;48.63
69245;BME280;56357;52.304;4.870;2023-03-16T00:54:55;101874.00;;;17.76;48.36
69245;BME280;56357;52.304;4.870;2023-03-16T00:57:23;101871.09;;;17.71;48.44
69245;BME280;56357;52.304;4.870;2023-03-16T00:59:49;101867.16;;;17.67;48.73
69245;BME280;56357;52.304;4.870;2023-03-16T01:02:17;101862.47;;;17.73;48.43
69245;BME280;56357;52.304;4.870;2023-03-16T01:04:47;101860.28;;;17.75;48.35
69245;BME280;56357;52.304;4.870;2023-03-16T01:07:14;101860.16;;;17.70;48.33
69245;BME280;56357;52.304;4.870;2023-03-16T01:09:41;101859.56;;;17.68;48.69
69245;BME280;56357;52.304;4.870;2023-03-16T01:12:13;101853.13;;;17.67;48.20
69245;BME280;56357;52.304;4.870;2023-03-16T01:14:41;101846.06;;;17.65;48.63
69245;BME280;56357;52.304;4.870;2023-03-16T01:17:10;101845.22;;;17.64;48.56
69245;BME280;56357;52.304;4.870;2023-03-16T01:19:38;101841.56;;;17.64;48.25
69245;BME280;56357;52.304;4.870;2023-03-16T01:22:06;101838.75;;;17.64;48.56
69245;BME280;56357;52.304;4.870;2023-03-16T01:24:34;101836.81;;;17.64;48.48
69245;BME280;56357;52.304;4.870;2023-03-16T01:27:02;101838.53;;;17.65;48.39
69245;BME280;56357;52.304;4.870;2023-03-16T01:29:29;101835.38;;;17.62;48.21
69245;BME280;56357;52.304;4.870;2023-03-16T01:31:55;101822.13;;;17.57;48.11
69245;BME280;56357;52.304;4.870;2023-03-16T01:34:22;101826.03;;;17.56;48.33
69245;BME280;56357;52.304;4.870;2023-03-16T01:36:49;101810.81;;;17.52;48.48
69245;BME280;56357;52.304;4.870;2023-03-16T01:39:16;101810.94;;;17.57;48.40
69245;BME280;56357;52.304;4.870;2023-03-16T01:41:44;101807.88;;;17.59;48.66
69245;BME280;56357;52.304;4.870;2023-03-16T01:44:14;101796.59;;;17.54;48.27
69245;BME280;56357;52.304;4.870;2023-03-16T01:46:41;101802.53;;;17.57;48.33
69245;BME280;56357;52.304;4.870;2023-03-16T01:49:09;101796.34;;;17.55;48.27
69245;BME280;56357;52.304;4.870;2023-03-16T01:51:41;101789.81;;;17.50;48.24
69245;BME280;56357;52.304;4.870;2023-03-16T01:54:14;101789.03;;;17.54;47.99
69245;BME280;56357;52.304;4.870;2023-03-16T01:59:28;101779.44;;;17.50;48.40
69245;BME280;56357;52.304;4.870;2023-03-16T02:01:55;101778.34;;;17.51;47.93
69245;BME280;56357;52.304;4.870;2023-03-16T02:04:31;101775.53;;;17.51;48.25
69245;BME280;56357;52.304;4.870;2023-03-16T02:07:01;101769.94;;;17.51;48.05
69245;BME280;56357;52.304;4.870;2023-03-16T02:09:28;101765.41;;;17.50;48.02
69245;BME280;56357;52.304;4.870;2023-03-16T02:11:57;101770.47;;;17.48;48.43
69245;BME280;56357;52.304;4.870;2023-03-16T02:14:23;101772.03;;;17.44;48.31
69245;BME280;56357;52.304;4.870;2023-03-16T02:16:50;101760.31;;;17.47;47.98
69245;BME280;56357;52.304;4.870;2023-03-16T02:19:34;101764.84;;;17.48;48.30
69245;BME280;56357;52.304;4.870;2023-03-16T02:22:07;101756.59;;;17.42;48.26
69245;BME280;56357;52.304;4.870;2023-03-16T02:24:36;101763.03;;;17.42;48.08
69245;BME280;56357;52.304;4.870;2023-03-16T02:27:11;101761.00;;;17.37;48.50
69245;BME280;56357;52.304;4.870;2023-03-16T02:29:58;101763.03;;;17.42;48.23
69245;BME280;56357;52.304;4.870;2023-03-16T02:32:29;101759.03;;;17.38;48.23
69245;BME280;56357;52.304;4.870;2023-03-16T02:34:57;101744.53;;;17.41;48.22
69245;BME280;56357;52.304;4.870;2023-03-16T02:37:25;101751.84;;;17.42;47.88
69245;BME280;56357;52.304;4.870;2023-03-16T02:39:51;101753.72;;;17.36;48.20
69245;BME280;56357;52.304;4.870;2023-03-16T02:42:20;101747.75;;;17.33;48.23
69245;BME280;56357;52.304;4.870;2023-03-16T02:44:55;101756.06;;;17.28;48.30
69245;BME280;56357;52.304;4.870;2023-03-16T02:47:39;101749.34;;;17.29;48.26
69245;BME280;56357;52.304;4.870;2023-03-16T02:50:08;101748.94;;;17.37;48.30
69245;BME280;56357;52.304;4.870;2023-03-16T02:52:36;101751.72;;;17.37;47.79
69245;BME280;56357;52.304;4.870;2023-03-16T02:55:05;101750.31;;;17.34;48.12
69245;BME280;56357;52.304;4.870;2023-03-16T02:57:32;101754.72;;;17.30;47.96
69245;BME280;56357;52.304;4.870;2023-03-16T02:59:59;101751.66;;;17.32;48.14
69245;BME280;56357;52.304;4.870;2023-03-16T03:02:25;101754.78;;;17.35;48.26
69245;BME280;56357;52.304;4.870;2023-03-16T03:04:52;101750.81;;;17.31;48.29
69245;BME280;56357;52.304;4.870;2023-03-16T03:07:20;101745.81;;;17.33;48.20
69245;BME280;56357;52.304;4.870;2023-03-16T03:09:55;101741.47;;;17.26;48.48
69245;BME280;56357;52.304;4.870;2023-03-16T03:12:22;101733.94;;;17.26;48.27
69245;BME280;56357;52.304;4.870;2023-03-16T03:14:48;101735.53;;;17.22;48.31
69245;BME280;56357;52.304;4.870;2023-03-16T03:17:14;101734.69;;;17.22;48.47
69245;BME280;56357;52.304;4.870;2023-03-16T03:19:41;101729.34;;;17.20;48.55
69245;BME280;56357;52.304;4.870;2023-03-16T03:22:07;101732.13;;;17.20;48.38
69245;BME280;56357;52.304;4.870;2023-03-16T03:24:34;101719.06;;;17.26;48.45
69245;BME280;56357;52.304;4.870;2023-03-16T03:27:01;101709.81;;;17.25;48.51
69245;BME280;56357;52.304;4.870;2023-03-16T03:29:32;101718.75;;;17.22;48.40
69245;BME280;56357;52.304;4.870;2023-03-16T03:32:00;101711.28;;;17.28;48.55
69245;BME280;56357;52.304;4.870;2023-03-16T03:34:28;101719.41;;;17.29;48.75
69245;BME280;56357;52.304;4.870;2023-03-16T03:36:55;101710.41;;;17.27;48.77
69245;BME280;56357;52.304;4.870;2023-03-16T03:39:23;101703.47;;;17.30;48.69
69245;BME280;56357;52.304;4.870;2023-03-16T03:41:50;101700.06;;;17.28;48.72
69245;BME280;56357;52.304;4.870;2023-03-16T03:44:22;101703.53;;;17.35;48.85
69245;BME280;56357;52.304;4.870;2023-03-16T03:46:49;101706.09;;;17.36;48.71
69245;BME280;56357;52.304;4.870;2023-03-16T03:49:16;101699.56;;;17.31;48.53
69245;BME280;56357;52.304;4.870;2023-03-16T03:51:43;101696.69;;;17.26;49.14
69245;BME280;56357;52.304;4.870;2023-03-16T03:54:09;101692.69;;;17.22;49.06
69245;BME280;56357;52.304;4.870;2023-03-16T03:56:36;101694.81;;;17.15;49.25
69245;BME280;56357;52.304;4.870;2023-03-16T03:59:02;101692.69;;;17.22;49.11
69245;BME280;56357;52.304;4.870;2023-03-16T04:01:29;101693.88;;;17.26;48.89
69245;BME280;56357;52.304;4.870;2023-03-16T04:03:55;101687.69;;;17.24;49.41
69245;BME280;56357;52.304;4.870;2023-03-16T04:06:21;101675.13;;;17.10;49.38
69245;BME280;56357;52.304;4.870;2023-03-16T04:08:48;101676.25;;;17.09;49.46
69245;BME280;56357;52.304;4.870;2023-03-16T04:11:15;101682.31;;;17.06;49.28
69245;BME280;56357;52.304;4.870;2023-03-16T04:13:41;101675.97;;;17.10;49.45
69245;BME280;56357;52.304;4.870;2023-03-16T04:16:08;101671.66;;;17.19;49.25
69245;BME280;56357;52.304;4.870;2023-03-16T04:18:34;101668.69;;;17.09;49.72
69245;BME280;56357;52.304;4.870;2023-03-16T04:21:04;101664.13;;;17.03;49.82
69245;BME280;56357;52.304;4.870;2023-03-16T04:23:32;101668.50;;;17.16;49.63
69245;BME280;56357;52.304;4.870;2023-03-16T04:26:00;101661.53;;;17.35;49.38
69245;BME280;56357;52.304;4.870;2023-03-16T04:28:26;101652.31;;;17.18;49.74
69245;BME280;56357;52.304;4.870;2023-03-16T04:30:53;101657.91;;;17.18;49.74
69245;BME280;56357;52.304;4.870;2023-03-16T04:33:20;101642.81;;;17.19;49.43
69245;BME280;56357;52.304;4.870;2023-03-16T04:35:47;101645.84;;;17.34;49.40
69245;BME280;56357;52.304;4.870;2023-03-16T04:38:14;101636.44;;;17.23;49.27
69245;BME280;56357;52.304;4.870;2023-03-16T04:40:40;101643.91;;;17.18;49.28
69245;BME280;56357;52.304;4.870;2023-03-16T04:43:07;101641.72;;;17.20;49.36
69245;BME280;56357;52.304;4.870;2023-03-16T04:45:33;101640.09;;;17.24;49.65
69245;BME280;56357;52.304;4.870;2023-03-16T04:48:00;101641.81;;;17.25;49.76
69245;BME280;56357;52.304;4.870;2023-03-16T04:50:26;101641.81;;;17.25;49.93
69245;BME280;56357;52.304;4.870;2023-03-16T04:52:52;101632.38;;;17.14;50.03
69245;BME280;56357;52.304;4.870;2023-03-16T04:55:19;101641.97;;;17.18;49.92
69245;BME280;56357;52.304;4.870;2023-03-16T04:57:46;101635.63;;;17.23;49.69
69245;BME280;56357;52.304;4.870;2023-03-16T05:00:13;101639.94;;;17.30;49.39
69245;BME280;56357;52.304;4.870;2023-03-16T05:02:44;101643.06;;;17.17;49.99
69245;BME280;56357;52.304;4.870;2023-03-16T05:05:10;101642.50;;;17.15;50.37
69245;BME280;56357;52.304;4.870;2023-03-16T05:07:37;101653.94;;;17.30;49.54
69245;BME280;56357;52.304;4.870;2023-03-16T05:10:08;101648.44;;;17.19;49.91
69245;BME280;56357;52.304;4.870;2023-03-16T05:12:35;101649.84;;;17.21;50.03
69245;BME280;56357;52.304;4.870;2023-03-16T05:15:02;101647.47;;;17.30;49.54
69245;BME280;56357;52.304;4.870;2023-03-16T05:17:28;101638.31;;;17.34;49.69
69245;BME280;56357;52.304;4.870;2023-03-16T05:19:55;101640.75;;;17.31;49.67
69245;BME280;56357;52.304;4.870;2023-03-16T05:22:21;101638.06;;;17.36;49.72
69245;BME280;56357;52.304;4.870;2023-03-16T05:24:47;101637.47;;;17.34;49.68
69245;BME280;56357;52.304;4.870;2023-03-16T05:27:14;101620.66;;;17.34;49.79
69245;BME280;56357;52.304;4.870;2023-03-16T05:29:40;101622.78;;;17.27;49.70
69245;BME280;56357;52.304;4.870;2023-03-16T05:32:10;101615.16;;;17.22;49.96
69245;BME280;56357;52.304;4.870;2023-03-16T05:34:37;101617.97;;;17.22;50.07
69245;BME280;56357;52.304;4.870;2023-03-16T05:37:03;101622.53;;;17.12;50.40
69245;BME280;56357;52.304;4.870;2023-03-16T05:39:30;101607.69;;;17.28;50.03
69245;BME280;56357;52.304;4.870;2023-03-16T05:41:57;101606.41;;;17.35;49.64
69245;BME280;56357;52.304;4.870;2023-03-16T05:44:23;101611.44;;;17.17;49.90
69245;BME280;56357;52.304;4.870;2023-03-16T05:46:50;101612.91;;;17.41;49.79
69245;BME280;56357;52.304;4.870;2023-03-16T05:49:16;101600.47;;;17.32;49.67
69245;BME280;56357;52.304;4.870;2023-03-16T05:51:42;101608.75;;;17.44;49.69
69245;BME280;56357;52.304;4.870;2023-03-16T05:54:09;101600.47;;;17.49;49.80
69245;BME280;56357;52.304;4.870;2023-03-16T05:56:35;101609.94;;;17.48;49.77
69245;BME280;56357;52.304;4.870;2023-03-16T05:59:02;101599.75;;;17.58;49.36
69245;BME280;56357;52.304;4.870;2023-03-16T06:01:29;101598.06;;;17.40;50.61
69245;BME280;56357;52.304;4.870;2023-03-16T06:03:58;101583.97;;;17.52;49.89
69245;BME280;56357;52.304;4.870;2023-03-16T06:06:24;101592.56;;;17.46;50.30
69245;BME280;56357;52.304;4.870;2023-03-16T06:08:51;101588.03;;;17.61;50.28
69245;BME280;56357;52.304;4.870;2023-03-16T06:11:17;101598.25;;;17.72;49.72
69245;BME280;56357;52.304;4.870;2023-03-16T06:13:44;101599.88;;;17.68;49.42
69245;BME280;56357;52.304;4.870;2023-03-16T06:16:10;101598.22;;;17.67;49.89
69245;BME280;56357;52.304;4.870;2023-03-16T06:18:38;101606.34;;;17.69;49.89
69245;BME280;56357;52.304;4.870;2023-03-16T06:21:05;101596.75;;;17.65;49.95
69245;BME280;56357;52.304;4.870;2023-03-16T06:23:32;101596.31;;;17.73;49.97
69245;BME280;56357;52.304;4.870;2023-03-16T06:25:59;101592.81;;;17.82;49.70
69245;BME280;56357;52.304;4.870;2023-03-16T06:28:25;101588.75;;;17.73;48.91
69245;BME280;56357;52.304;4.870;2023-03-16T06:30:53;101592.03;;;17.65;49.48
69245;BME280;56357;52.304;4.870;2023-03-16T06:33:20;101587.03;;;17.51;50.16
69245;BME280;56357;52.304;4.870;2023-03-16T06:35:46;101583.34;;;17.67;50.21
69245;BME280;56357;52.304;4.870;2023-03-16T06:38:14;101582.03;;;17.74;50.25
69245;BME280;56357;52.304;4.870;2023-03-16T06:40:40;101573.44;;;17.59;51.72
69245;BME280;56357;52.304;4.870;2023-03-16T06:43:07;101575.41;;;17.59;50.94
69245;BME280;56357;52.304;4.870;2023-03-16T06:45:33;101569.94;;;17.69;50.80
69245;BME280;56357;52.304;4.870;2023-03-16T06:48:00;101560.84;;;17.62;51.38
69245;BME280;56357;52.304;4.870;2023-03-16T06:50:27;101568.50;;;17.66;51.37
69245;BME280;56357;52.304;4.870;2023-03-16T06:52:53;101563.78;;;17.72;51.25
69245;BME280;56357;52.304;4.870;2023-03-16T06:55:19;101569.34;;;17.88;50.92
69245;BME280;56357;52.304;4.870;2023-03-16T06:57:46;101567.41;;;17.67;51.70
69245;BME280;56357;52.304;4.870;2023-03-16T07:00:13;101564.19;;;17.80;51.60
69245;BME280;56357;52.304;4.870;2023-03-16T07:02:41;101569.84;;;17.85;51.39
69245;BME280;56357;52.304;4.870;2023-03-16T07:05:08;101566.41;;;17.78;51.62
69245;BME280;56357;52.304;4.870;2023-03-16T07:07:38;101575.19;;;17.87;51.93
69245;BME280;56357;52.304;4.870;2023-03-16T07:10:05;101574.28;;;17.81;51.95
69245;BME280;56357;52.304;4.870;2023-03-16T07:12:31;101562.28;;;17.86;51.32
69245;BME280;56357;52.304;4.870;2023-03-16T07:14:58;101553.63;;;17.87;51.12
69245;BME280;56357;52.304;4.870;2023-03-16T07:17:25;101557.16;;;17.56;52.00
69245;BME280;56357;52.304;4.870;2023-03-16T07:19:51;101552.75;;;17.87;51.29
69245;BME280;56357;52.304;4.870;2023-03-16T07:22:18;101555.09;;;17.95;51.05
69245;BME280;56357;52.304;4.870;2023-03-16T07:24:44;101551.59;;;17.83;51.64
69245;BME280;56357;52.304;4.870;2023-03-16T07:27:11;101548.00;;;17.87;51.50
69245;BME280;56357;52.304;4.870;2023-03-16T07:29:37;101555.66;;;17.92;51.10
69245;BME280;56357;52.304;4.870;2023-03-16T07:32:04;101546.34;;;17.86;50.95
69245;BME280;56357;52.304;4.870;2023-03-16T07:34:30;101549.19;;;17.91;50.56
69245;BME280;56357;52.304;4.870;2023-03-16T07:36:57;101560.84;;;17.83;50.88
69245;BME280;56357;52.304;4.870;2023-03-16T07:39:23;101550.03;;;17.92;50.86
69245;BME280;56357;52.304;4.870;2023-03-16T07:41:49;101563.28;;;17.75;51.19
69245;BME280;56357;52.304;4.870;2023-03-16T07:44:16;101554.97;;;17.85;51.03
69245;BME280;56357;52.304;4.870;2023-03-16T07:46:42;101550.88;;;17.92;50.98
69245;BME280;56357;52.304;4.870;2023-03-16T07:49:09;101545.06;;;17.99;50.89
69245;BME280;56357;52.304;4.870;2023-03-16T07:51:36;101552.56;;;17.93;51.11
69245;BME280;56357;52.304;4.870;2023-03-16T07:54:02;101545.03;;;17.94;51.49
69245;BME280;56357;52.304;4.870;2023-03-16T07:56:29;101542.88;;;18.06;50.98
69245;BME280;56357;52.304;4.870;2023-03-16T07:58:56;101549.31;;;18.01;51.40
69245;BME280;56357;52.304;4.870;2023-03-16T08:01:22;101547.69;;;18.05;51.28
69245;BME280;56357;52.304;4.870;2023-03-16T08:03:49;101557.28;;;18.14;50.91
69245;BME280;56357;52.304;4.870;2023-03-16T08:06:15;101548.72;;;18.26;51.22
69245;BME280;56357;52.304;4.870;2023-03-16T08:08:42;101557.72;;;18.01;51.54
69245;BME280;56357;52.304;4.870;2023-03-16T08:11:08;101546.56;;;18.06;51.46
69245;BME280;56357;52.304;4.870;2023-03-16T08:13:35;101548.84;;;18.09;51.38
69245;BME280;56357;52.304;4.870;2023-03-16T08:16:02;101555.50;;;18.03;51.78
69245;BME280;56357;52.304;4.870;2023-03-16T08:18:29;101560.25;;;18.03;51.73
69245;BME280;56357;52.304;4.870;2023-03-16T08:20:56;101563.38;;;18.06;51.91
69245;BME280;56357;52.304;4.870;2023-03-16T08:23:23;101568.66;;;18.29;52.17
69245;BME280;56357;52.304;4.870;2023-03-16T08:25:54;101568.97;;;18.33;51.91
69245;BME280;56357;52.304;4.870;2023-03-16T08:28:22;101559.50;;;18.39;51.78
69245;BME280;56357;52.304;4.870;2023-03-16T08:30:51;101564.41;;;18.49;51.74
69245;BME280;56357;52.304;4.870;2023-03-16T08:33:19;101558.78;;;18.49;51.63
69245;BME280;56357;52.304;4.870;2023-03-16T08:35:46;101558.28;;;18.52;51.41
69245;BME280;56357;52.304;4.870;2023-03-16T08:38:13;101552.47;;;18.37;51.55
69245;BME280;56357;52.304;4.870;2023-03-16T08:40:41;101544.75;;;18.49;51.54
69245;BME280;56357;52.304;4.870;2023-03-16T08:43:11;101559.22;;;18.41;51.70
69245;BME280;56357;52.304;4.870;2023-03-16T08:45:38;101539.72;;;18.51;51.22
69245;BME280;56357;52.304;4.870;2023-03-16T08:48:04;101542.03;;;18.54;50.80
69245;BME280;56357;52.304;4.870;2023-03-16T08:50:31;101528.31;;;18.57;50.97
69245;BME280;56357;52.304;4.870;2023-03-16T08:52:58;101535.63;;;18.37;51.51
69245;BME280;56357;52.304;4.870;2023-03-16T08:55:25;101534.69;;;18.53;50.99
69245;BME280;56357;52.304;4.870;2023-03-16T08:57:53;101534.16;;;18.56;50.89
69245;BME280;56357;52.304;4.870;2023-03-16T09:00:19;101530.75;;;18.49;51.24
69245;BME280;56357;52.304;4.870;2023-03-16T09:02:46;101542.22;;;18.47;51.27
69245;BME280;56357;52.304;4.870;2023-03-16T09:05:13;101532.16;;;18.51;51.38
69245;BME280;56357;52.304;4.870;2023-03-16T09:07:39;101531.72;;;18.38;51.26
69245;BME280;56357;52.304;4.870;2023-03-16T09:10:07;101529.13;;;18.31;51.52
69245;BME280;56357;52.304;4.870;2023-03-16T09:12:36;101528.03;;;18.32;51.04
69245;BME280;56357;52.304;4.870;2023-03-16T09:15:04;101533.34;;;18.28;51.18
69245;BME280;56357;52.304;4.870;2023-03-16T09:17:30;101531.59;;;18.22;51.23
69245;BME280;56357;52.304;4.870;2023-03-16T09:19:57;101528.25;;;18.25;51.11
69245;BME280;56357;52.304;4.870;2023-03-16T09:22:24;101526.88;;;18.28;50.90
69245;BME280;56357;52.304;4.870;2023-03-16T09:24:50;101519.91;;;18.31;51.60
69245;BME280;56357;52.304;4.870;2023-03-16T09:27:17;101513.44;;;18.30;50.99
69245;BME280;56357;52.304;4.870;2023-03-16T09:29:44;101512.47;;;18.46;50.58
69245;BME280;56357;52.304;4.870;2023-03-16T09:32:12;101502.94;;;18.42;50.56
69245;BME280;56357;52.304;4.870;2023-03-16T09:34:39;101509.75;;;18.56;51.11
69245;BME280;56357;52.304;4.870;2023-03-16T09:37:05;101517.00;;;18.47;50.81
69245;BME280;56357;52.304;4.870;2023-03-16T09:39:32;101516.69;;;18.44;50.80
69245;BME280;56357;52.304;4.870;2023-03-16T09:44:38;101516.72;;;18.49;50.68
69245;BME280;56357;52.304;4.870;2023-03-16T09:47:09;101512.25;;;18.53;50.19
69245;BME280;56357;52.304;4.870;2023-03-16T09:49:44;101507.81;;;18.57;50.23
69245;BME280;56357;52.304;4.870;2023-03-16T09:52:34;101516.84;;;18.64;50.01
69245;BME280;56357;52.304;4.870;2023-03-16T09:57:45;101508.22;;;18.75;49.55
69245;BME280;56357;52.304;4.870;2023-03-16T10:00:16;101498.94;;;18.70;50.03
69245;BME280;56357;52.304;4.870;2023-03-16T10:05:26;101499.00;;;18.80;49.35
69245;BME280;56357;52.304;4.870;2023-03-16T10:11:02;101506.44;;;19.01;48.92
69245;BME280;56357;52.304;4.870;2023-03-16T10:13:45;101501.94;;;19.00;49.19
69245;BME280;56357;52.304;4.870;2023-03-16T10:16:18;101493.72;;;18.88;49.49
69245;BME280;56357;52.304;4.870;2023-03-16T10:18:57;101496.28;;;18.90;49.39
69245;BME280;56357;52.304;4.870;2023-03-16T10:21:25;101489.81;;;18.89;49.32
69245;BME280;56357;52.304;4.870;2023-03-16T10:23:53;101488.09;;;18.88;49.08
69245;BME280;56357;52.304;4.870;2023-03-16T10:26:29;101487.88;;;18.95;48.95
69245;BME280;56357;52.304;4.870;2023-03-16T10:28:58;101488.16;;;18.93;48.74
69245;BME280;56357;52.304;4.870;2023-03-16T10:31:26;101490.47;;;19.06;48.76
69245;BME280;56357;52.304;4.870;2023-03-16T10:34:03;101482.84;;;18.97;48.90
69245;BME280;56357;52.304;4.870;2023-03-16T10:36:32;101476.94;;;18.98;48.42
69245;BME280;56357;52.304;4.870;2023-03-16T10:39:05;101471.63;;;19.02;48.29
69245;BME280;56357;52.304;4.870;2023-03-16T10:41:35;101474.19;;;19.03;48.58
69245;BME280;56357;52.304;4.870;2023-03-16T10:44:13;101460.16;;;19.03;48.25
69245;BME280;56357;52.304;4.870;2023-03-16T10:47:20;101453.63;;;18.93;48.63
69245;BME280;56357;52.304;4.870;2023-03-16T10:49:43;101450.81;;;18.88;48.75
69245;BME280;56357;52.304;4.870;2023-03-16T10:52:32;101453.63;;;18.93;48.40
69245;BME280;56357;52.304;4.870;2023-03-16T10:55:06;101444.94;;;18.94;48.52
69245;BME280;56357;52.304;4.870;2023-03-16T10:57:39;101452.25;;;18.95;48.40
69245;BME280;56357;52.304;4.870;2023-03-16T11:00:19;101439.88;;;18.91;48.16
69245;BME280;56357;52.304;4.870;2023-03-16T11:02:47;101440.16;;;18.90;48.43
69245;BME280;56357;52.304;4.870;2023-03-16T11:07:53;101437.28;;;18.85;48.48
69245;BME280;56357;52.304;4.870;2023-03-16T11:10:29;101427.50;;;18.92;48.16
69245;BME280;56357;52.304;4.870;2023-03-16T11:13:33;101424.47;;;18.94;48.15
69245;BME280;56357;52.304;4.870;2023-03-16T11:18:56;101422.22;;;18.96;48.06
69245;BME280;56357;52.304;4.870;2023-03-16T11:22:01;101428.38;;;18.93;48.32
69245;BME280;56357;52.304;4.870;2023-03-16T11:24:43;101419.66;;;18.94;48.13
69245;BME280;56357;52.304;4.870;2023-03-16T11:27:29;101422.75;;;18.93;48.12
69245;BME280;56357;52.304;4.870;2023-03-16T11:32:37;101427.22;;;18.89;48.42
69245;BME280;56357;52.304;4.870;2023-03-16T11:35:19;101421.31;;;18.90;48.05
69245;BME280;56357;52.304;4.870;2023-03-16T11:38:03;101422.47;;;18.89;48.19
69245;BME280;56357;52.304;4.870;2023-03-16T11:40:58;101426.13;;;18.90;48.14
69245;BME280;56357;52.304;4.870;2023-03-16T11:46:35;101426.69;;;18.92;49.08
69245;BME280;56357;52.304;4.870;2023-03-16T11:49:30;101421.66;;;18.94;49.00
69245;BME280;56357;52.304;4.870;2023-03-16T11:58:14;101421.66;;;18.94;49.40
69245;BME280;56357;52.304;4.870;2023-03-16T12:04:33;101414.03;;;18.84;49.59
69245;BME280;56357;52.304;4.870;2023-03-16T12:12:54;101403.72;;;19.05;49.37
69245;BME280;56357;52.304;4.870;2023-03-16T12:15:32;101402.31;;;19.02;49.10
69245;BME280;56357;52.304;4.870;2023-03-16T12:20:55;101390.50;;;19.00;48.58
69245;BME280;56357;52.304;4.870;2023-03-16T12:23:29;101384.34;;;19.03;48.39
69245;BME280;56357;52.304;4.870;2023-03-16T12:25:57;101376.19;;;19.02;48.52
69245;BME280;56357;52.304;4.870;2023-03-16T12:28:26;101386.84;;;19.00;48.79
69245;BME280;56357;52.304;4.870;2023-03-16T12:33:53;101367.81;;;19.07;48.19
69245;BME280;56357;52.304;4.870;2023-03-16T12:36:56;101360.47;;;19.06;48.09
69245;BME280;56357;52.304;4.870;2023-03-16T12:42:35;101344.25;;;19.13;47.75
69245;BME280;56357;52.304;4.870;2023-03-16T12:45:28;101339.78;;;19.22;47.81
69245;BME280;56357;52.304;4.870;2023-03-16T12:48:18;101322.06;;;19.16;47.93
69245;BME280;56357;52.304;4.870;2023-03-16T12:50:51;101308.31;;;19.15;48.40
69245;BME280;56357;52.304;4.870;2023-03-16T12:56:26;101312.53;;;19.23;47.98
69245;BME280;56357;52.304;4.870;2023-03-16T12:58:56;101308.31;;;19.25;48.04
69245;BME280;56357;52.304;4.870;2023-03-16T13:01:37;101312.25;;;19.24;47.93
69245;BME280;56357;52.304;4.870;2023-03-16T13:04:13;101308.88;;;19.22;48.16
69245;BME280;56357;52.304;4.870;2023-03-16T13:06:43;101304.41;;;19.26;48.47
69245;BME280;56357;52.304;4.870;2023-03-16T13:09:17;101308.31;;;19.25;48.34
69245;BME280;56357;52.304;4.870;2023-03-16T13:11:47;101301.03;;;19.24;48.58
69245;BME280;56357;52.304;4.870;2023-03-16T13:14:41;101292.09;;;19.32;48.36
69245;BME280;56357;52.304;4.870;2023-03-16T13:19:45;101293.75;;;19.33;48.33
69245;BME280;56357;52.304;4.870;2023-03-16T13:22:28;101298.84;;;19.36;48.00
69245;BME280;56357;52.304;4.870;2023-03-16T13:25:39;101301.38;;;19.48;47.79
69245;BME280;56357;52.304;4.870;2023-03-16T13:28:05;101294.06;;;19.47;47.94
69245;BME280;56357;52.304;4.870;2023-03-16T13:30:34;101300.25;;;19.44;47.85
69245;BME280;56357;52.304;4.870;2023-03-16T13:33:16;101281.97;;;19.46;47.77
69245;BME280;56357;52.304;4.870;2023-03-16T13:35:45;101286.50;;;19.47;47.66
69245;BME280;56357;52.304;4.870;2023-03-16T13:38:14;101267.94;;;19.46;47.82
69245;BME280;56357;52.304;4.870;2023-03-16T13:40:45;101265.44;;;19.50;47.75
69245;BME280;56357;52.304;4.870;2023-03-16T13:43:21;101267.41;;;19.49;47.41
69245;BME280;56357;52.304;4.870;2023-03-16T13:45:48;101272.72;;;19.51;47.74
69245;BME280;56357;52.304;4.870;2023-03-16T13:48:15;101272.16;;;19.49;47.54
69245;BME280;56357;52.304;4.870;2023-03-16T13:50:42;101265.69;;;19.58;47.65
69245;BME280;56357;52.304;4.870;2023-03-16T13:53:14;101264.84;;;19.53;47.41
69245;BME280;56357;52.304;4.870;2023-03-16T13:55:43;101260.94;;;19.49;47.50
69245;BME280;56357;52.304;4.870;2023-03-16T13:58:28;101253.34;;;19.49;47.53